Main page


Airports :

Knock, Ireland

Ireland West Airport Knock

latitude: 53-54-37N, longitude: 008-49-05W, elevation: 203 m

Current weather observation

The report was made 32 minutes ago, at 17:00 UTC
Wind 5 kt from the West, varying between South/Southwest and Northwest
Temperature 8°C
Humidity 42%
Pressure 1033 hPa
Visibility 10 km or more
Few clouds at a height of 2200 ft
Broken clouds at a height of 28000 ft

METAR: EIKN 201700Z 26005KT 210V310 9999 FEW022 BKN280 08/M04 Q1033 NOSIG

Time: 17:32 (17:32 UTC)


The report was made 6 hours and 32 minutes ago, at 11:00 UTC
Forecast valid from 20 at 12 UTC to 21 at 12 UTC
Wind 6 kt from the West/Northwest
Visibility 10 km or more
Scattered clouds at a height of 4000 ft

TAF: EIKN 201100Z 2012/2112 29006KT 9999 SCT040

Weather observations and forecasts of more than 4000 airports (METAR and TAF reports).

The available stations are represented by yellow and red dots on the map.

Hover mouse over dot to see the name of the station.

Then click to see weather observations and forecasts.

To change the map : click on the green buttons with a black cross to zoom in, on the green button with a dash to zoom out, or on the green arrows for adjacent maps.